Time;durP1;ratioP1;P1;durP2;ratioP2;P2;SDS_P1;SDS_P2;PMS_P1;PMS_P2;Temp;Humidity;BMP_temperature;BMP_pressure;BME280_temperature;BME280_humidity;BME280_pressure;Samples;Min_cycle;Max_cycle;Signal;HPM_P1;HPM_P2
2023/02/24 00:02:23;;;;;;;10.55;2.40;;;2.70;99.90;;;;;;4993231;28;20034;-73
2023/02/24 00:04:51;;;;;;;7.55;2.10;;;2.70;99.90;;;;;;4993358;28;20034;-72
2023/02/24 00:07:17;;;;;;;19.90;2.17;;;2.60;99.90;;;;;;4994904;28;20050;-73
2023/02/24 00:09:47;;;;;;;9.93;2.85;;;2.60;99.90;;;;;;4974508;28;20034;-73
2023/02/24 00:12:15;;;;;;;7.50;2.35;;;2.60;99.90;;;;;;4986796;28;20043;-74
2023/02/24 00:14:43;;;;;;;8.23;1.88;;;2.60;99.90;;;;;;4991146;28;20057;-73
2023/02/24 00:17:13;;;;;;;5.70;2.08;;;2.60;99.90;;;;;;4983689;28;20109;-73
2023/02/24 00:19:39;;;;;;;13.18;2.17;;;2.50;99.90;;;;;;4995028;28;20041;-72
2023/02/24 00:22:06;;;;;;;7.70;1.83;;;2.50;99.90;;;;;;4985029;28;20034;-72
2023/02/24 00:24:32;;;;;;;17.10;3.17;;;2.50;99.90;;;;;;4966268;28;20514;-73
2023/02/24 00:27:00;;;;;;;14.38;1.88;;;2.50;99.90;;;;;;4966050;28;20035;-74
2023/02/24 00:29:28;;;;;;;13.80;2.58;;;2.50;99.90;;;;;;4969430;28;20074;-72
2023/02/24 00:31:59;;;;;;;29.70;4.13;;;2.40;99.90;;;;;;4976250;28;20041;-72
2023/02/24 00:34:26;;;;;;;11.68;2.17;;;2.40;99.90;;;;;;4973337;28;20067;-72
2023/02/24 00:36:52;;;;;;;9.27;2.40;;;2.40;99.90;;;;;;4977013;28;20543;-72
2023/02/24 00:39:17;;;;;;;14.80;1.83;;;2.40;99.90;;;;;;4977749;28;20038;-73
2023/02/24 00:41:43;;;;;;;11.82;2.42;;;2.30;99.90;;;;;;4978026;28;20150;-73
2023/02/24 00:44:12;;;;;;;13.35;1.95;;;2.30;99.90;;;;;;4970549;28;20749;-72
2023/02/24 00:46:43;;;;;;;8.10;2.20;;;2.30;99.90;;;;;;5009274;28;20132;-72
2023/02/24 00:49:15;;;;;;;6.40;1.75;;;2.30;99.90;;;;;;4973284;28;20042;-72
2023/02/24 00:51:43;;;;;;;11.43;1.50;;;2.20;99.90;;;;;;4973941;28;20122;-73
2023/02/24 00:54:13;;;;;;;7.25;1.88;;;2.20;99.90;;;;;;4976041;28;20043;-72
2023/02/24 00:56:41;;;;;;;9.07;1.75;;;2.20;99.90;;;;;;4974970;28;20026;-72
2023/02/24 00:59:06;;;;;;;8.90;1.48;;;2.10;99.90;;;;;;4975958;28;20034;-72
2023/02/24 01:01:33;;;;;;;4.28;1.42;;;2.10;99.90;;;;;;4976345;28;20041;-73
2023/02/24 01:04:10;;;;;;;8.52;2.05;;;2.10;99.90;;;;;;4975879;28;20039;-72
2023/02/24 01:06:44;;;;;;;6.90;1.63;;;2.10;99.90;;;;;;4974582;28;20065;-72
2023/02/24 01:09:15;;;;;;;7.07;1.85;;;2.10;99.90;;;;;;4969604;28;20050;-72
2023/02/24 01:12:16;;;;;;;17.38;3.03;;;2.10;99.90;;;;;;4970626;28;20159;-73
2023/02/24 01:14:51;;;;;;;4.95;1.60;;;2.00;99.90;;;;;;4973329;28;20034;-72
2023/02/24 01:17:17;;;;;;;;;;;2.00;99.90;;;;;;4969621;28;20575;-73
2023/02/24 01:19:43;;;;;;;7.47;2.42;;;2.00;99.90;;;;;;4974588;28;20012;-72
2023/02/24 01:22:13;;;;;;;18.33;2.92;;;2.00;99.90;;;;;;4973598;28;20150;-72
2023/02/24 01:24:42;;;;;;;10.10;1.40;;;2.00;99.90;;;;;;4974541;28;20514;-72
2023/02/24 01:27:09;;;;;;;11.40;1.45;;;2.00;99.90;;;;;;4974167;28;20031;-72
2023/02/24 01:29:38;;;;;;;7.82;1.98;;;2.00;99.90;;;;;;4973680;28;20518;-72
2023/02/24 01:32:05;;;;;;;10.32;1.60;;;2.00;99.90;;;;;;4969234;28;20627;-72
2023/02/24 01:34:30;;;;;;;8.85;2.28;;;2.00;99.90;;;;;;4969193;28;20066;-74
2023/02/24 01:36:56;;;;;;;11.43;1.75;;;2.00;99.90;;;;;;4969328;28;20073;-73
2023/02/24 01:39:24;;;;;;;9.93;1.70;;;2.00;99.90;;;;;;4972320;28;20511;-72
2023/02/24 01:41:54;;;;;;;12.80;1.90;;;2.10;99.90;;;;;;4967376;28;20038;-72
2023/02/24 01:44:23;;;;;;;9.90;2.25;;;2.10;99.90;;;;;;4968829;28;20035;-73
2023/02/24 01:46:51;;;;;;;5.85;1.33;;;2.10;99.90;;;;;;4970785;28;20407;-73
2023/02/24 01:49:42;;;;;;;12.75;2.03;;;2.10;99.90;;;;;;4970003;28;21268;-72
2023/02/24 01:52:07;;;;;;;;;;;2.10;99.90;;;;;;4969260;28;20038;-72
2023/02/24 01:54:42;;;;;;;6.30;1.38;;;2.00;99.90;;;;;;4969373;28;19972;-72
2023/02/24 01:57:15;;;;;;;7.63;1.55;;;2.00;99.90;;;;;;4969497;28;20035;-72
2023/02/24 01:59:43;;;;;;;13.88;2.38;;;1.90;99.90;;;;;;4968589;28;20035;-72
2023/02/24 02:02:09;;;;;;;11.52;2.42;;;1.90;99.90;;;;;;4977162;28;20141;-72
2023/02/24 02:05:04;;;;;;;8.40;1.38;;;1.80;99.90;;;;;;4967733;28;20027;-72
2023/02/24 02:07:30;;;;;;;6.72;1.45;;;1.80;99.90;;;;;;4970512;28;20711;-73
2023/02/24 02:10:02;;;;;;;11.32;1.88;;;1.80;99.90;;;;;;4972293;28;20031;-72
2023/02/24 02:12:30;;;;;;;9.80;2.35;;;1.80;99.90;;;;;;4972443;28;20042;-73
2023/02/24 02:14:58;;;;;;;5.03;1.17;;;1.70;99.90;;;;;;4966751;28;20031;-72
2023/02/24 02:17:44;;;;;;;8.27;1.77;;;1.70;99.90;;;;;;4971581;28;20415;-72
2023/02/24 02:20:20;;;;;;;12.07;1.40;;;1.70;99.90;;;;;;4981566;28;20170;-73
2023/02/24 02:23:20;;;;;;;7.47;1.10;;;1.70;99.90;;;;;;4967289;28;20051;-73
2023/02/24 02:26:23;;;;;;;13.40;3.33;;;1.70;99.90;;;;;;5000268;28;20129;-72
2023/02/24 02:28:52;;;;;;;9.65;1.65;;;1.70;99.90;;;;;;4969326;28;20050;-72
2023/02/24 02:31:27;;;;;;;10.88;2.13;;;1.70;99.90;;;;;;4969774;28;20034;-73
2023/02/24 02:34:21;;;;;;;13.05;1.67;;;1.70;99.90;;;;;;4978620;28;20085;-72
2023/02/24 02:37:25;;;;;;;5.97;1.42;;;1.70;99.90;;;;;;4970530;28;20463;-72
2023/02/24 02:40:00;;;;;;;7.25;1.45;;;1.70;99.90;;;;;;4999575;28;20062;-73
2023/02/24 02:42:40;;;;;;;10.15;1.13;;;1.70;99.90;;;;;;4970180;28;20031;-73
2023/02/24 02:45:06;;;;;;;;;;;1.70;99.90;;;;;;4985867;28;20435;-73
2023/02/24 02:47:42;;;;;;;6.10;1.40;;;1.60;99.90;;;;;;4971219;28;19918;-74
2023/02/24 02:50:46;;;;;;;6.60;1.85;;;1.70;99.90;;;;;;4970738;28;20113;-72
2023/02/24 02:53:23;;;;;;;12.63;1.45;;;1.60;99.90;;;;;;4999906;28;20039;-72
2023/02/24 02:55:59;;;;;;;8.98;2.47;;;1.70;99.90;;;;;;4969849;28;20034;-73
2023/02/24 02:58:29;;;;;;;9.10;1.08;;;1.70;99.90;;;;;;4967916;28;20038;-72
2023/02/24 03:01:01;;;;;;;9.77;2.08;;;1.70;99.90;;;;;;4969770;28;20043;-72
2023/02/24 03:03:37;;;;;;;7.18;1.95;;;1.70;99.90;;;;;;4970655;28;20039;-72
2023/02/24 03:06:08;;;;;;;5.13;1.15;;;1.70;99.90;;;;;;5004834;28;20060;-71
2023/02/24 03:08:36;;;;;;;12.55;1.42;;;1.70;99.90;;;;;;4969065;28;20050;-73
2023/02/24 03:11:06;;;;;;;6.80;1.50;;;1.70;99.90;;;;;;4970686;28;20061;-73
2023/02/24 03:13:39;;;;;;;7.43;1.48;;;1.70;99.90;;;;;;4967948;28;20034;-73
2023/02/24 03:16:08;;;;;;;5.78;1.50;;;1.70;99.90;;;;;;4968727;28;20086;-71
2023/02/24 03:18:39;;;;;;;13.05;1.80;;;1.70;99.90;;;;;;4966704;28;20479;-73
2023/02/24 03:21:10;;;;;;;14.02;1.92;;;1.80;99.90;;;;;;4967698;28;20591;-72
2023/02/24 03:23:46;;;;;;;11.63;1.35;;;1.80;99.90;;;;;;4966810;28;20102;-72
2023/02/24 03:26:24;;;;;;;7.07;1.20;;;1.80;99.90;;;;;;4968333;28;20038;-71
2023/02/24 03:29:16;;;;;;;5.95;1.40;;;1.90;99.90;;;;;;4964309;28;20031;-72
2023/02/24 03:32:05;;;;;;;10.52;2.05;;;2.00;99.90;;;;;;4981207;28;20027;-72
2023/02/24 03:34:43;;;;;;;5.88;2.38;;;2.10;99.90;;;;;;4965480;28;20035;-73
2023/02/24 03:37:08;;;;;;;13.85;1.85;;;2.10;99.90;;;;;;4968170;28;20034;-73
2023/02/24 03:39:35;;;;;;;10.43;1.33;;;2.20;99.90;;;;;;4965059;28;20035;-73
2023/02/24 03:42:14;;;;;;;6.68;1.20;;;2.20;99.90;;;;;;4968336;28;20065;-73
2023/02/24 03:44:39;;;;;;;6.43;1.17;;;2.30;99.90;;;;;;4965371;28;20085;-72
2023/02/24 03:47:08;;;;;;;6.68;1.60;;;2.30;99.90;;;;;;4967406;28;20042;-72
2023/02/24 03:49:37;;;;;;;5.05;1.08;;;2.30;99.90;;;;;;4964978;28;20144;-73
2023/02/24 03:52:25;;;;;;;8.25;1.10;;;2.40;99.90;;;;;;4966801;28;20050;-72
2023/02/24 03:55:01;;;;;;;8.88;1.35;;;2.40;99.90;;;;;;4994686;28;20089;-72
2023/02/24 03:57:58;;;;;;;9.98;1.45;;;2.40;99.90;;;;;;4967735;28;20039;-72
2023/02/24 04:00:38;;;;;;;12.00;1.92;;;2.40;99.90;;;;;;4980257;28;20513;-72
2023/02/24 04:03:24;;;;;;;6.43;1.38;;;2.50;99.90;;;;;;4969113;28;20034;-72
2023/02/24 04:06:30;;;;;;;7.30;1.08;;;2.50;99.90;;;;;;4976419;28;20074;-72
2023/02/24 04:09:00;;;;;;;8.50;1.83;;;2.60;99.90;;;;;;4961191;28;20077;-72
2023/02/24 04:11:44;;;;;;;5.15;1.23;;;2.60;99.90;;;;;;4970026;28;20043;-72
2023/02/24 04:14:55;;;;;;;8.90;1.17;;;2.70;99.90;;;;;;4985774;28;20508;-72
2023/02/24 04:17:25;;;;;;;;;;;2.70;99.90;;;;;;4971459;28;20035;-72
2023/02/24 04:19:54;;;;;;;5.43;0.80;;;2.80;99.90;;;;;;4970489;28;20363;-72
2023/02/24 04:22:23;;;;;;;17.25;1.55;;;2.80;99.90;;;;;;4968691;28;20031;-73
2023/02/24 04:24:52;;;;;;;6.40;1.15;;;2.80;99.90;;;;;;4970836;28;20031;-72
2023/02/24 04:27:19;;;;;;;5.90;0.75;;;2.80;99.90;;;;;;4973076;28;20038;-72
2023/02/24 04:29:50;;;;;;;7.20;0.95;;;2.90;99.90;;;;;;4972786;28;20117;-72
2023/02/24 04:32:20;;;;;;;5.38;1.00;;;2.90;99.90;;;;;;4974183;28;20034;-73
2023/02/24 04:34:45;;;;;;;4.80;1.30;;;3.00;99.90;;;;;;4970674;28;20050;-72
2023/02/24 04:37:12;;;;;;;7.97;1.77;;;3.00;99.90;;;;;;4969217;28;20039;-72
2023/02/24 04:39:38;;;;;;;6.55;1.67;;;3.00;99.90;;;;;;4972585;28;20045;-72
2023/02/24 04:42:05;;;;;;;11.32;2.25;;;3.00;99.90;;;;;;4972870;28;20034;-71
2023/02/24 04:44:34;;;;;;;11.23;1.65;;;3.00;99.90;;;;;;4968484;28;20683;-73
2023/02/24 04:46:59;;;;;;;5.93;0.70;;;3.00;99.90;;;;;;4968963;28;20369;-73
2023/02/24 04:49:25;;;;;;;3.45;0.63;;;3.00;99.90;;;;;;4970530;28;20042;-71
2023/02/24 04:51:51;;;;;;;5.80;0.95;;;3.00;99.90;;;;;;4971124;28;20066;-71
2023/02/24 04:54:19;;;;;;;4.28;0.90;;;3.00;99.90;;;;;;4970027;28;20039;-72
2023/02/24 04:56:46;;;;;;;6.50;0.90;;;3.00;99.90;;;;;;4969638;28;20045;-72
2023/02/24 04:59:13;;;;;;;8.18;1.23;;;3.00;99.90;;;;;;4966522;28;20558;-72
2023/02/24 05:01:41;;;;;;;11.10;1.00;;;3.00;99.90;;;;;;4972348;28;20039;-73
2023/02/24 05:04:07;;;;;;;8.63;1.10;;;3.00;99.90;;;;;;4970475;28;20753;-73
2023/02/24 05:06:33;;;;;;;7.28;1.63;;;3.00;99.90;;;;;;4971148;28;20073;-73
2023/02/24 05:09:00;;;;;;;9.45;1.55;;;3.00;99.90;;;;;;4971726;28;20035;-72
2023/02/24 05:11:33;;;;;;;8.50;0.63;;;3.10;99.90;;;;;;4969151;28;20046;-72
2023/02/24 05:13:59;;;;;;;1.92;0.40;;;3.10;99.90;;;;;;4971650;28;20038;-73
2023/02/24 05:16:27;;;;;;;3.65;0.60;;;3.10;99.90;;;;;;4968745;28;20062;-72
2023/02/24 05:19:47;;;;;;;7.82;0.73;;;3.00;99.90;;;;;;4971340;28;20473;-72
2023/02/24 05:21:40;;;;;;;10.93;1.95;;;3.00;99.90;;;;;;4968620;28;20031;-73
2023/02/24 05:24:06;;;;;;;4.47;0.68;;;3.00;99.90;;;;;;4970240;28;20037;-72
2023/02/24 05:26:34;;;;;;;2.75;0.73;;;3.10;99.90;;;;;;4971079;28;20046;-72
2023/02/24 05:29:00;;;;;;;3.75;0.73;;;3.00;99.90;;;;;;4969818;28;20392;-73
2023/02/24 05:31:28;;;;;;;6.07;1.65;;;3.10;99.90;;;;;;4968819;28;20034;-72
2023/02/24 05:34:01;;;;;;;6.22;0.60;;;3.10;99.90;;;;;;4969436;28;20031;-73
2023/02/24 05:36:30;;;;;;;5.15;0.50;;;3.10;99.90;;;;;;4969743;28;20089;-71
2023/02/24 05:38:57;;;;;;;7.57;1.10;;;3.10;99.90;;;;;;4974057;28;20034;-71
2023/02/24 05:41:31;;;;;;;6.90;1.17;;;3.10;99.90;;;;;;4980983;28;20376;-73
2023/02/24 05:43:57;;;;;;;4.97;0.50;;;3.10;99.90;;;;;;4984698;28;20031;-72
2023/02/24 05:46:32;;;;;;;5.78;1.33;;;3.10;99.90;;;;;;4977587;28;20046;-70
2023/02/24 05:49:01;;;;;;;11.88;1.25;;;3.10;99.90;;;;;;4994940;28;20026;-71
2023/02/24 05:51:34;;;;;;;5.32;0.50;;;3.10;99.90;;;;;;4978518;28;20026;-73
2023/02/24 05:54:08;;;;;;;5.35;1.55;;;3.10;99.90;;;;;;5006425;28;20030;-72
2023/02/24 05:56:36;;;;;;;4.05;0.85;;;3.10;99.90;;;;;;4977514;28;20050;-72
2023/02/24 05:59:07;;;;;;;3.85;1.20;;;3.20;99.90;;;;;;4977824;28;20144;-70
2023/02/24 06:01:35;;;;;;;8.93;1.27;;;3.10;99.90;;;;;;4960404;28;20034;-71
2023/02/24 06:04:05;;;;;;;9.18;1.05;;;3.20;99.90;;;;;;4982346;28;20069;-71
2023/02/24 06:06:35;;;;;;;5.70;0.98;;;3.20;99.90;;;;;;4979082;28;20719;-72
2023/02/24 06:09:09;;;;;;;1.30;0.40;;;3.20;99.90;;;;;;4956905;28;20076;-71
2023/02/24 06:11:36;;;;;;;4.57;1.17;;;3.20;99.90;;;;;;4977918;28;20043;-72
2023/02/24 06:14:05;;;;;;;7.78;0.98;;;3.30;99.90;;;;;;4952422;28;20073;-71
2023/02/24 06:16:32;;;;;;;5.72;0.45;;;3.30;99.90;;;;;;4976797;28;20519;-71
2023/02/24 06:18:58;;;;;;;4.78;1.20;;;3.30;99.90;;;;;;4959179;28;20046;-73
2023/02/24 06:21:28;;;;;;;5.65;0.82;;;3.30;99.90;;;;;;4951312;28;20042;-71
2023/02/24 06:23:54;;;;;;;5.38;0.73;;;3.40;99.90;;;;;;4974958;28;20579;-71
2023/02/24 06:26:20;;;;;;;3.53;0.65;;;3.40;99.90;;;;;;4965262;28;20514;-71
2023/02/24 06:28:46;;;;;;;1.33;0.52;;;3.40;99.90;;;;;;4973810;28;20035;-71
2023/02/24 06:31:13;;;;;;;6.03;0.98;;;3.40;99.90;;;;;;4969440;28;20442;-71
2023/02/24 06:33:40;;;;;;;7.07;1.08;;;3.40;99.90;;;;;;4969827;28;20039;-72
2023/02/24 06:36:07;;;;;;;6.07;1.35;;;3.50;99.90;;;;;;4985157;28;20042;-71
2023/02/24 06:38:35;;;;;;;6.97;0.98;;;3.50;99.90;;;;;;4958518;28;20192;-72
2023/02/24 06:41:03;;;;;;;6.22;1.20;;;3.50;99.90;;;;;;4959634;28;20078;-72
2023/02/24 06:43:32;;;;;;;8.32;0.93;;;3.50;99.90;;;;;;4972433;28;20095;-73
2023/02/24 06:45:58;;;;;;;7.53;1.20;;;3.50;99.90;;;;;;4968698;28;20038;-72
2023/02/24 06:48:24;;;;;;;5.45;1.00;;;3.60;99.90;;;;;;4967978;28;20046;-73
2023/02/24 06:50:54;;;;;;;4.47;0.93;;;3.50;99.90;;;;;;4970763;28;20063;-71
2023/02/24 06:53:20;;;;;;;10.43;1.53;;;3.60;99.90;;;;;;4972971;28;20038;-71
2023/02/24 06:55:47;;;;;;;2.95;0.70;;;3.60;99.90;;;;;;5001092;28;20031;-71
2023/02/24 06:58:18;;;;;;;7.30;0.93;;;3.60;99.90;;;;;;4965151;28;20348;-71
2023/02/24 07:00:55;;;;;;;5.22;0.50;;;3.70;99.90;;;;;;4969076;28;20027;-71
2023/02/24 07:03:23;;;;;;;5.30;0.70;;;3.70;99.90;;;;;;4981917;28;20471;-72
2023/02/24 07:06:09;;;;;;;10.10;1.95;;;3.70;99.90;;;;;;4971330;28;20034;-72
2023/02/24 07:08:36;;;;;;;8.45;0.93;;;3.80;99.90;;;;;;4976217;28;20848;-73
2023/02/24 07:11:05;;;;;;;8.15;1.13;;;3.80;99.90;;;;;;4977577;28;20038;-72
2023/02/24 07:13:31;;;;;;;5.70;0.68;;;3.80;99.90;;;;;;4974308;28;20035;-71
2023/02/24 07:16:05;;;;;;;8.60;1.73;;;3.80;99.90;;;;;;4977201;28;20039;-71
2023/02/24 07:18:40;;;;;;;4.45;0.63;;;3.90;99.90;;;;;;4976895;28;20039;-71
2023/02/24 07:21:12;;;;;;;2.97;0.43;;;3.90;99.90;;;;;;4964289;28;20706;-72
2023/02/24 07:23:39;;;;;;;4.47;0.82;;;3.90;99.90;;;;;;4977433;28;20033;-71
2023/02/24 07:26:10;;;;;;;3.38;1.10;;;4.00;99.90;;;;;;4982849;28;20034;-71
2023/02/24 07:28:38;;;;;;;6.70;1.48;;;4.00;99.90;;;;;;4970853;28;20034;-73
2023/02/24 07:31:10;;;;;;;5.40;0.60;;;4.10;99.90;;;;;;4974833;28;20118;-73
2023/02/24 07:33:37;;;;;;;2.13;0.65;;;4.10;99.90;;;;;;4967362;28;20035;-72
2023/02/24 07:36:08;;;;;;;5.95;0.75;;;4.10;99.90;;;;;;4979205;28;20092;-71
2023/02/24 07:38:36;;;;;;;7.95;1.60;;;4.20;99.90;;;;;;4974989;28;20530;-72
2023/02/24 07:41:03;;;;;;;7.38;1.52;;;4.20;99.90;;;;;;4981802;28;20124;-72
2023/02/24 07:43:29;;;;;;;11.30;0.90;;;4.20;99.90;;;;;;4966723;28;20062;-71
2023/02/24 07:45:56;;;;;;;6.57;0.93;;;4.30;99.90;;;;;;4978001;28;20095;-72
2023/02/24 07:48:23;;;;;;;6.30;1.00;;;4.30;99.90;;;;;;4978123;28;20041;-72
2023/02/24 07:50:49;;;;;;;7.18;0.98;;;4.30;99.90;;;;;;5004157;28;20476;-73
2023/02/24 07:53:15;;;;;;;5.88;0.73;;;4.40;99.90;;;;;;4972936;28;20027;-73
2023/02/24 07:55:41;;;;;;;5.97;1.02;;;4.40;99.90;;;;;;4968774;28;20035;-71
2023/02/24 07:58:06;;;;;;;9.15;1.88;;;4.40;99.90;;;;;;4979497;28;20027;-71
2023/02/24 08:00:48;;;;;;;6.65;1.20;;;4.50;99.90;;;;;;4970912;28;20041;-72
2023/02/24 08:03:14;;;;;;;9.10;1.40;;;4.50;99.90;;;;;;4977653;28;20031;-73
2023/02/24 08:05:42;;;;;;;13.88;1.33;;;4.50;99.90;;;;;;4988089;28;20027;-72
2023/02/24 08:08:11;;;;;;;6.50;1.23;;;4.60;99.90;;;;;;4958324;28;20034;-73
2023/02/24 08:10:39;;;;;;;4.15;1.20;;;4.60;99.90;;;;;;4983942;28;20034;-73
2023/02/24 08:13:05;;;;;;;11.35;1.38;;;4.60;99.90;;;;;;4973909;28;20109;-73
2023/02/24 08:15:32;;;;;;;5.65;0.73;;;4.70;99.90;;;;;;4976914;28;20121;-73
2023/02/24 08:17:59;;;;;;;8.38;1.13;;;4.70;99.90;;;;;;4975217;28;20029;-73
2023/02/24 08:20:28;;;;;;;7.20;1.00;;;4.70;99.90;;;;;;4971365;28;20118;-73
2023/02/24 08:22:54;;;;;;;4.22;0.60;;;4.80;99.90;;;;;;4975116;28;20068;-73
2023/02/24 08:25:23;;;;;;;5.15;1.30;;;4.80;99.90;;;;;;4965434;28;20039;-73
2023/02/24 08:27:55;;;;;;;3.92;0.80;;;4.90;99.90;;;;;;4975095;28;20047;-74
2023/02/24 08:30:24;;;;;;;7.90;1.48;;;4.90;99.90;;;;;;4972453;28;20027;-73
2023/02/24 08:32:55;;;;;;;11.55;1.45;;;5.00;99.90;;;;;;4966271;28;20043;-74
2023/02/24 08:35:30;;;;;;;5.53;1.02;;;5.00;99.90;;;;;;4965078;28;20031;-72
2023/02/24 08:37:59;;;;;;;4.70;1.92;;;5.10;99.90;;;;;;4965603;28;20043;-72
2023/02/24 08:43:14;;;;;;;8.10;1.20;;;5.10;99.90;;;;;;4966455;28;20047;-72
2023/02/24 08:45:43;;;;;;;6.35;1.40;;;5.10;99.90;;;;;;4966328;28;20031;-72
2023/02/24 08:48:25;;;;;;;5.30;1.83;;;5.10;99.90;;;;;;4967523;28;20122;-72
2023/02/24 08:50:53;;;;;;;8.35;1.08;;;5.10;99.90;;;;;;4968343;28;20468;-72
2023/02/24 08:53:19;;;;;;;4.82;1.15;;;5.10;99.90;;;;;;4972497;28;20459;-72
2023/02/24 08:55:51;;;;;;;4.15;1.83;;;5.10;99.90;;;;;;4979834;28;20039;-72
2023/02/24 08:58:25;;;;;;;5.60;1.13;;;5.10;99.90;;;;;;4972824;28;20030;-74
2023/02/24 09:00:53;;;;;;;6.60;1.55;;;5.10;99.90;;;;;;4976764;28;20455;-72
2023/02/24 09:03:28;;;;;;;6.88;1.30;;;5.10;99.90;;;;;;4973658;28;20407;-74
2023/02/24 09:06:07;;;;;;;11.88;1.98;;;5.10;99.90;;;;;;4972532;28;20631;-72
2023/02/24 09:08:37;;;;;;;5.53;1.13;;;5.20;99.90;;;;;;4981563;28;20035;-71
2023/02/24 09:11:06;;;;;;;9.35;1.20;;;5.30;99.90;;;;;;4993136;28;20035;-72
2023/02/24 09:13:36;;;;;;;14.05;1.50;;;5.30;99.90;;;;;;4985020;28;20038;-71
2023/02/24 09:16:03;;;;;;;9.33;1.70;;;5.40;99.90;;;;;;4984594;28;20093;-73
2023/02/24 09:18:29;;;;;;;15.00;1.45;;;5.40;99.90;;;;;;4971292;28;20027;-72
2023/02/24 09:20:56;;;;;;;10.43;1.60;;;5.50;99.90;;;;;;4968267;28;20053;-72
2023/02/24 09:23:28;;;;;;;16.92;1.73;;;5.50;99.90;;;;;;4970287;28;20089;-71
2023/02/24 09:25:55;;;;;;;11.48;1.75;;;5.50;99.90;;;;;;4978005;28;20068;-72
2023/02/24 09:28:25;;;;;;;10.88;2.35;;;5.50;99.90;;;;;;4974265;28;20395;-72
2023/02/24 09:31:03;;;;;;;6.03;1.27;;;5.60;99.90;;;;;;4980865;28;20041;-72
2023/02/24 09:33:37;;;;;;;11.55;1.80;;;5.60;99.90;;;;;;4982580;28;20031;-73
2023/02/24 09:36:26;;;;;;;12.65;2.10;;;5.70;99.90;;;;;;4976123;28;20027;-71
2023/02/24 09:41:52;;;;;;;5.88;1.30;;;5.80;99.90;;;;;;4983999;28;20104;-71
2023/02/24 09:44:23;;;;;;;8.43;1.58;;;5.80;99.90;;;;;;4974942;28;20109;-73
2023/02/24 09:47:29;;;;;;;7.95;1.48;;;5.90;99.90;;;;;;4978543;28;20039;-73
2023/02/24 09:49:59;;;;;;;8.95;2.20;;;5.90;99.90;;;;;;4992636;28;20031;-73
2023/02/24 09:53:12;;;;;;;9.45;2.28;;;5.90;99.90;;;;;;4974464;28;20093;-72
2023/02/24 09:55:44;;;;;;;13.40;1.50;;;5.90;99.90;;;;;;4984445;28;20034;-73
2023/02/24 10:01:29;;;;;;;18.33;2.92;;;5.90;99.90;;;;;;4996525;28;20044;-73
2023/02/24 10:04:11;;;;;;;11.52;2.10;;;5.90;99.90;;;;;;4951942;28;20054;-72
2023/02/24 10:06:39;;;;;;;16.52;1.85;;;5.90;99.90;;;;;;4977859;28;20196;-74
2023/02/24 10:09:25;;;;;;;5.13;1.23;;;5.90;99.90;;;;;;4998521;28;20046;-73
2023/02/24 10:12:04;;;;;;;8.55;1.10;;;6.00;99.90;;;;;;5004118;28;20056;-74
2023/02/24 10:14:43;;;;;;;14.10;2.75;;;6.00;99.90;;;;;;4975549;28;20042;-74
2023/02/24 10:17:24;;;;;;;14.43;1.38;;;6.00;99.90;;;;;;4983242;28;20454;-76
2023/02/24 10:19:59;;;;;;;5.40;1.17;;;6.00;99.90;;;;;;5005036;28;20060;-73
2023/02/24 10:22:49;;;;;;;13.60;2.85;;;6.00;99.90;;;;;;4987309;28;20145;-75
2023/02/24 10:25:40;;;;;;;11.30;1.58;;;6.10;99.90;;;;;;4982154;28;20042;-75
2023/02/24 10:28:08;;;;;;;;;;;6.00;99.90;;;;;;4987970;28;20110;-73
2023/02/24 10:30:49;;;;;;;7.90;1.92;;;6.00;99.90;;;;;;4985437;28;19995;-72
2023/02/24 10:33:15;;;;;;;;;;;6.00;99.90;;;;;;4989460;28;20041;-73
2023/02/24 10:35:42;;;;;;;11.45;1.65;;;6.00;99.90;;;;;;4983551;28;19910;-75
2023/02/24 10:38:08;;;;;;;6.20;1.48;;;6.00;99.90;;;;;;4971700;28;20030;-72
2023/02/24 10:40:45;;;;;;;13.30;2.42;;;6.00;99.90;;;;;;5001513;28;20042;-75
2023/02/24 10:43:17;;;;;;;9.80;2.10;;;6.00;99.90;;;;;;4990146;28;20098;-74
2023/02/24 10:45:45;;;;;;;13.73;2.60;;;6.00;99.90;;;;;;4985033;28;20042;-72
2023/02/24 10:48:23;;;;;;;9.82;1.60;;;6.00;99.90;;;;;;4985401;28;20121;-72
2023/02/24 10:50:53;;;;;;;7.50;1.45;;;6.00;99.90;;;;;;5001656;28;20034;-73
2023/02/24 10:53:33;;;;;;;8.52;1.70;;;6.00;99.90;;;;;;4985741;28;20040;-72
2023/02/24 10:56:25;;;;;;;12.07;1.80;;;6.00;99.90;;;;;;4988888;28;20089;-72
2023/02/24 10:59:39;;;;;;;8.85;2.78;;;6.00;99.90;;;;;;4968732;28;20117;-73
2023/02/24 11:02:31;;;;;;;7.82;2.38;;;6.20;99.90;;;;;;4996155;28;20037;-72
2023/02/24 11:05:23;;;;;;;5.30;2.20;;;6.20;99.90;;;;;;4987430;28;20038;-73
2023/02/24 11:07:52;;;;;;;4.15;1.85;;;6.30;99.90;;;;;;4984034;28;20574;-71
2023/02/24 11:10:31;;;;;;;8.15;2.10;;;6.30;99.90;;;;;;4982531;28;20045;-73
2023/02/24 11:18:30;;;;;;;8.38;2.10;;;6.40;99.90;;;;;;5005796;28;20037;-72
2023/02/24 11:21:11;;;;;;;4.72;2.13;;;6.50;99.90;;;;;;5004024;28;20512;-75
2023/02/24 11:23:58;;;;;;;9.13;3.08;;;6.50;99.90;;;;;;4991674;28;20560;-73
2023/02/24 11:26:36;;;;;;;4.38;2.30;;;6.50;99.90;;;;;;4989533;28;20043;-71
2023/02/24 11:29:26;;;;;;;5.30;2.75;;;6.50;99.90;;;;;;4987491;28;20038;-73
2023/02/24 11:32:08;;;;;;;5.00;2.10;;;6.50;99.90;;;;;;4995473;28;20155;-73
2023/02/24 11:34:34;;;;;;;4.45;2.13;;;6.40;99.90;;;;;;5004698;28;20304;-74
2023/02/24 11:37:47;;;;;;;7.65;2.75;;;6.50;99.90;;;;;;5002368;28;20034;-73
2023/02/24 11:40:26;;;;;;;7.45;2.97;;;6.50;99.90;;;;;;4948697;28;20550;-73
2023/02/24 11:43:03;;;;;;;7.28;2.72;;;6.50;99.90;;;;;;4934095;28;20042;-73
2023/02/24 11:45:49;;;;;;;8.73;2.97;;;6.60;99.90;;;;;;4976246;28;20466;-72
2023/02/24 11:48:34;;;;;;;11.93;3.42;;;6.80;99.90;;;;;;4977653;28;20721;-73
2023/02/24 11:51:08;;;;;;;10.38;4.30;;;6.90;99.90;;;;;;4986723;28;20034;-73
2023/02/24 11:53:49;;;;;;;9.52;3.53;;;7.00;99.90;;;;;;4993049;28;20054;-74
2023/02/24 11:56:27;;;;;;;10.23;3.78;;;7.10;99.90;;;;;;4995999;28;20045;-73
2023/02/24 11:59:30;;;;;;;7.70;3.13;;;7.10;99.90;;;;;;5000823;28;20044;-72
2023/02/24 12:02:15;;;;;;;14.43;4.05;;;7.20;99.90;;;;;;4971714;28;20042;-73
2023/02/24 12:05:01;;;;;;;12.63;3.60;;;7.10;99.90;;;;;;4973711;28;20034;-73
2023/02/24 12:07:34;;;;;;;13.23;3.40;;;7.30;99.90;;;;;;4972755;28;20046;-72
2023/02/24 12:10:21;;;;;;;13.18;3.05;;;7.40;99.90;;;;;;4965734;28;20554;-72
2023/02/24 12:13:14;;;;;;;17.33;4.20;;;7.50;99.90;;;;;;4979234;28;20097;-72
2023/02/24 12:16:01;;;;;;;14.48;2.80;;;7.70;99.90;;;;;;4984631;28;20042;-73
2023/02/24 12:18:47;;;;;;;20.13;2.72;;;7.80;99.90;;;;;;4967199;28;20035;-75
2023/02/24 12:21:29;;;;;;;20.83;2.75;;;7.70;99.90;;;;;;4958270;28;20062;-72
2023/02/24 12:23:57;;;;;;;17.80;3.20;;;7.70;99.90;;;;;;4973848;28;20034;-73
2023/02/24 12:26:47;;;;;;;18.02;2.90;;;7.70;99.90;;;;;;4964177;28;20038;-72
2023/02/24 12:29:31;;;;;;;7.97;1.48;;;7.80;99.90;;;;;;5002098;28;20529;-72
2023/02/24 12:32:17;;;;;;;15.52;2.92;;;7.80;99.90;;;;;;4990128;28;20026;-74
2023/02/24 12:35:24;;;;;;;8.75;2.40;;;8.00;99.90;;;;;;4973694;28;20026;-72
2023/02/24 12:37:50;;;;;;;15.98;3.70;;;8.10;99.90;;;;;;4976364;28;20126;-72
2023/02/24 12:40:24;;;;;;;12.77;2.08;;;8.20;99.90;;;;;;4970745;28;21603;-74
2023/02/24 12:43:25;;;;;;;11.23;1.95;;;8.30;99.90;;;;;;4975447;28;20034;-73
2023/02/24 12:45:51;;;;;;;15.52;1.95;;;8.50;99.90;;;;;;4978345;28;20105;-72
2023/02/24 12:48:35;;;;;;;14.70;2.22;;;8.60;99.90;;;;;;4984725;28;20042;-72
2023/02/24 12:51:23;;;;;;;16.80;2.72;;;8.70;99.90;;;;;;4976253;28;20035;-73
2023/02/24 12:54:05;;;;;;;10.57;2.53;;;8.80;99.90;;;;;;4977939;28;20027;-74
2023/02/24 12:57:12;;;;;;;15.88;2.47;;;8.90;99.90;;;;;;4984097;28;20038;-72
2023/02/24 12:59:40;;;;;;;14.73;2.85;;;8.90;99.90;;;;;;4980329;28;20042;-72
2023/02/24 13:02:39;;;;;;;16.77;1.83;;;9.00;99.90;;;;;;4979707;28;20069;-74
2023/02/24 13:05:18;;;;;;;14.80;1.88;;;8.90;99.90;;;;;;4970925;28;20387;-73
2023/02/24 13:08:02;;;;;;;34.97;3.83;;;8.80;99.90;;;;;;4983156;28;20196;-72
2023/02/24 13:10:40;;;;;;;15.32;1.88;;;8.70;99.90;;;;;;4987076;28;20069;-73
2023/02/24 13:13:05;;;;;;;16.25;1.83;;;8.60;99.90;;;;;;4999537;28;20080;-72
2023/02/24 13:15:31;;;;;;;20.42;1.95;;;8.60;99.90;;;;;;5016260;28;20038;-73
2023/02/24 13:17:57;;;;;;;14.70;2.65;;;8.60;99.90;;;;;;4999850;28;20038;-71
2023/02/24 13:20:33;;;;;;;14.18;2.08;;;8.60;99.90;;;;;;4997241;28;20034;-72
2023/02/24 13:23:02;;;;;;;14.82;2.60;;;8.60;99.90;;;;;;4987909;28;20038;-73
2023/02/24 13:25:37;;;;;;;16.70;1.65;;;8.60;99.90;;;;;;5000308;28;20088;-73
2023/02/24 13:28:19;;;;;;;14.52;2.45;;;8.70;99.90;;;;;;4990682;28;20046;-73
2023/02/24 13:30:45;;;;;;;24.73;3.83;;;8.70;99.90;;;;;;4980124;28;20121;-72
2023/02/24 13:33:16;;;;;;;16.17;2.05;;;8.80;99.90;;;;;;4999871;28;20121;-75
2023/02/24 13:35:42;;;;;;;17.02;3.38;;;8.80;99.90;;;;;;4988760;28;20073;-73
2023/02/24 13:38:30;;;;;;;17.42;2.15;;;8.90;99.90;;;;;;4999165;28;20038;-71
2023/02/24 13:41:27;;;;;;;13.95;2.22;;;8.80;99.90;;;;;;4989819;28;20038;-73
2023/02/24 13:43:58;;;;;;;8.95;1.85;;;8.70;99.90;;;;;;5000526;28;20038;-74
2023/02/24 13:46:27;;;;;;;12.82;1.77;;;8.60;99.90;;;;;;4973166;28;20041;-73